Дата Пункты Температура Давл., мм. Влажн., % Ветер Погодные явления
Воздуха Воды Направл. Скорость
05.07.19 03:00 Одесса 26.0 18.0 757 58 Пд 3 15 ГОДИН
05.07.19 12:00 Одесса 25.0 20.0 759 69 Пд 6 12 ГОДИН
05.07.19 09:00 Одесса 21.0 20.0 760 65 С 3 09 ГОДИН
05.07.19 06:00 Одесса 21.0 21.0 760 74 Пн-С 1 06 ГОДИН
05.07.19 03:00 Одесса 19.0 21.0 760 79 Пн 0 03 ГОДИНИ
04.07.19 09:00 Одесса 23.0 21.0 759 51 Пн 0 21 ГОДИНУ
04.07.19 06:00 Одесса 25.0 19.0 759 52 Пд-С 1 18 ГОДИН
04.07.19 03:00 Одесса 28.0 19.0 760 38 Пн 1 15 ГОДИН
04.07.19 12:00 Одесса 25.0 22.0 760 48 Пн-С 2 12 ГОДИН
04.07.19 09:00 Одесса 24.0 22.0 760 52 Пн 2 09 ГОДИН
04.07.19 06:00 Одесса 20.0 21.0 759 67 Пн-З 3 06 ГОДИН
04.07.19 03:00 Одесса 19.0 21.0 758 93 Пн-З 3 03 ГОДИНИ
03.07.19 09:00 Одесса 19.0 21.0 757 95 З 1 21 ГОДИНУ
03.07.19 06:00 Одесса 19.0 22.0 758 92 Пн-З 1 18 ГОДИН
03.07.19 03:00 Одесса 23.0 22.0 757 73 Пд-С 3 15 ГОДИН
03.07.19 12:00 Одесса 27.0 21.0 757 58 Пд-С 2 12 ГОДИН
03.07.19 09:00 Одесса 27.0 21.0 757 60 Пн 1 09 ГОДИН
03.07.19 06:00 Одесса 22.0 20.0 756 74 Пн 0 06 ГОДИН
03.07.19 03:00 Одесса 22.0 20.0 756 71 С 3 03 ГОДИНИ
02.07.19 09:00 Одесса 26.0 20.0 755 69 З 2 21 ГОДИНУ
Количество строк
1 2 3 4 5 6 7 8 9 10
Page 6 of 511